createdAt,value
2023-05-07T00:00:27.070Z,12.97
2023-05-07T00:02:07.468Z,12.93
2023-05-07T00:03:48.015Z,12.91
2023-05-07T00:05:28.332Z,12.86
2023-05-07T00:07:08.758Z,12.88
2023-05-07T00:08:49.210Z,12.83
2023-05-07T00:10:29.682Z,12.82
2023-05-07T00:12:10.038Z,12.83
2023-05-07T00:13:50.478Z,12.8
2023-05-07T00:15:30.889Z,12.79
2023-05-07T00:17:11.229Z,12.77
2023-05-07T00:18:51.608Z,12.76
2023-05-07T00:20:33.145Z,12.75
2023-05-07T00:22:12.413Z,12.72
2023-05-07T00:23:52.767Z,12.69
2023-05-07T00:25:33.142Z,12.66
2023-05-07T00:27:13.545Z,12.63
2023-05-07T00:28:53.888Z,12.63
2023-05-07T00:30:34.242Z,12.59
2023-05-07T00:32:14.754Z,12.59
2023-05-07T00:33:55.072Z,12.55
2023-05-07T00:35:35.531Z,12.52
2023-05-07T00:37:15.889Z,12.52
2023-05-07T00:38:56.407Z,12.49
2023-05-07T00:40:36.761Z,12.49
2023-05-07T00:42:17.202Z,12.48
2023-05-07T00:43:57.614Z,12.43
2023-05-07T00:45:38.075Z,12.43
2023-05-07T00:47:18.471Z,12.42
2023-05-07T00:48:58.933Z,12.4
2023-05-07T00:50:39.210Z,12.4
2023-05-07T00:52:19.666Z,12.39
2023-05-07T00:54:00.036Z,12.4
2023-05-07T00:55:40.453Z,12.4
2023-05-07T00:57:20.783Z,12.35
2023-05-07T00:59:01.329Z,12.32
2023-05-07T01:00:41.651Z,12.33
2023-05-07T01:02:22.158Z,12.31
2023-05-07T01:04:02.491Z,12.29
2023-05-07T01:05:42.889Z,12.29
2023-05-07T01:07:23.273Z,12.27
2023-05-07T01:09:03.733Z,12.25
2023-05-07T01:10:44.218Z,12.27
2023-05-07T01:12:24.577Z,12.24
2023-05-07T01:14:04.916Z,12.22
2023-05-07T01:15:45.335Z,12.21
2023-05-07T01:17:25.873Z,12.22
2023-05-07T01:19:06.185Z,12.19
2023-05-07T01:20:46.572Z,12.21
2023-05-07T01:22:27.003Z,12.17
2023-05-07T01:24:07.437Z,12.14
2023-05-07T01:25:47.842Z,12.12
2023-05-07T01:27:28.183Z,12.14
2023-05-07T01:29:08.636Z,12.14
2023-05-07T01:30:49.077Z,12.11
2023-05-07T01:32:29.492Z,12.08
2023-05-07T01:34:09.945Z,12.08
2023-05-07T01:35:50.319Z,12.06
2023-05-07T01:37:30.728Z,12.08
2023-05-07T01:39:11.111Z,12.06
2023-05-07T01:40:51.635Z,12.06
2023-05-07T01:42:32.033Z,12.05
2023-05-07T01:44:12.458Z,12.05
2023-05-07T01:45:52.905Z,12.04
2023-05-07T01:47:33.306Z,12.04
2023-05-07T01:49:13.675Z,12.02
2023-05-07T01:50:54.084Z,12.02
2023-05-07T01:52:34.511Z,12.01
2023-05-07T01:54:14.909Z,11.98
2023-05-07T01:55:55.350Z,12
2023-05-07T01:57:35.752Z,12
2023-05-07T01:59:16.115Z,12
2023-05-07T02:00:56.398Z,11.97
2023-05-07T02:02:36.955Z,11.94
2023-05-07T02:05:57.787Z,11.94
2023-05-07T02:07:38.258Z,11.91
2023-05-07T02:09:18.887Z,11.94
2023-05-07T02:10:59.097Z,11.92
2023-05-07T02:12:39.572Z,11.92
2023-05-07T02:14:19.925Z,11.94
2023-05-07T02:16:00.419Z,11.95
2023-05-07T02:17:40.745Z,11.94
2023-05-07T02:19:21.093Z,11.92
2023-05-07T02:21:01.530Z,11.92
2023-05-07T02:22:41.914Z,11.9
2023-05-07T02:24:22.340Z,11.9
2023-05-07T02:26:02.789Z,11.92
2023-05-07T02:27:43.142Z,11.91
2023-05-07T02:29:23.566Z,11.9
2023-05-07T02:31:03.901Z,11.85
2023-05-07T02:32:44.361Z,11.85
2023-05-07T02:34:24.704Z,11.82
2023-05-07T02:36:05.134Z,11.84
2023-05-07T02:37:45.514Z,11.81
2023-05-07T02:39:25.897Z,11.78
2023-05-07T02:41:06.276Z,11.78
2023-05-07T02:42:46.898Z,11.77
2023-05-07T02:44:27.060Z,11.74
2023-05-07T02:46:07.580Z,11.71
2023-05-07T02:47:47.902Z,11.71
2023-05-07T02:49:28.335Z,11.69
2023-05-07T02:51:08.779Z,11.66
2023-05-07T02:52:49.205Z,11.63
2023-05-07T02:54:29.628Z,11.61
2023-05-07T02:56:10.032Z,11.6
2023-05-07T02:57:50.421Z,11.56
2023-05-07T02:59:30.882Z,11.56
2023-05-07T03:01:11.323Z,11.53
2023-05-07T03:02:51.681Z,11.5
2023-05-07T03:04:32.136Z,11.5
2023-05-07T03:06:12.413Z,11.47
2023-05-07T03:07:52.839Z,11.46
2023-05-07T03:09:33.273Z,11.46
2023-05-07T03:11:13.668Z,11.44
2023-05-07T03:12:54.138Z,11.42
2023-05-07T03:14:34.493Z,11.42
2023-05-07T03:16:14.923Z,11.43
2023-05-07T03:17:55.474Z,11.4
2023-05-07T03:19:35.766Z,11.4
2023-05-07T03:21:16.123Z,11.4
2023-05-07T03:22:56.530Z,11.4
2023-05-07T03:24:36.993Z,11.37
2023-05-07T03:26:17.449Z,11.36
2023-05-07T03:27:57.902Z,11.36
2023-05-07T03:29:38.257Z,11.36
2023-05-07T03:31:18.633Z,11.34
2023-05-07T03:32:59.099Z,11.32
2023-05-07T03:34:39.435Z,11.33
2023-05-07T03:36:19.801Z,11.32
2023-05-07T03:38:00.189Z,11.29
2023-05-07T03:39:40.594Z,11.3
2023-05-07T03:41:21.073Z,11.27
2023-05-07T03:43:01.412Z,11.25
2023-05-07T03:44:41.855Z,11.25
2023-05-07T03:46:22.262Z,11.25
2023-05-07T03:48:02.566Z,11.23
2023-05-07T03:49:42.978Z,11.23
2023-05-07T03:51:23.366Z,11.22
2023-05-07T03:53:03.736Z,11.21
2023-05-07T03:54:44.123Z,11.21
2023-05-07T03:56:24.546Z,11.19
2023-05-07T03:58:04.911Z,11.19
2023-05-07T03:59:45.358Z,11.19
2023-05-07T04:01:25.706Z,11.18
2023-05-07T04:03:06.118Z,11.13
2023-05-07T04:04:46.484Z,11.12
2023-05-07T04:06:26.965Z,11.11
2023-05-07T04:08:07.407Z,11.11
2023-05-07T04:09:47.818Z,11.09
2023-05-07T04:11:28.319Z,11.06
2023-05-07T04:13:08.857Z,11.04
2023-05-07T04:14:49.215Z,11.01
2023-05-07T04:16:29.636Z,11.02
2023-05-07T04:18:10.009Z,11.02
2023-05-07T04:19:50.390Z,10.96
2023-05-07T04:21:30.853Z,10.95
2023-05-07T04:23:11.300Z,10.95
2023-05-07T04:24:51.650Z,10.95
2023-05-07T04:26:32.114Z,10.96
2023-05-07T04:28:12.602Z,10.95
2023-05-07T04:29:52.913Z,10.9
2023-05-07T04:31:33.285Z,10.88
2023-05-07T04:33:13.721Z,10.9
2023-05-07T04:34:54.125Z,10.91
2023-05-07T04:36:34.558Z,10.9
2023-05-07T04:38:14.955Z,10.85
2023-05-07T04:39:55.328Z,10.9
2023-05-07T04:41:35.838Z,10.86
2023-05-07T04:43:16.124Z,10.86
2023-05-07T04:44:56.596Z,10.88
2023-05-07T04:46:37.050Z,10.9
2023-05-07T04:48:17.514Z,10.9
2023-05-07T04:49:57.882Z,10.88
2023-05-07T04:51:38.349Z,10.9
2023-05-07T04:53:18.809Z,10.86
2023-05-07T04:54:59.238Z,10.86
2023-05-07T04:56:39.673Z,10.88
2023-05-07T04:58:20.064Z,10.86
2023-05-07T05:00:00.586Z,10.86
2023-05-07T05:01:41.011Z,10.86
2023-05-07T05:03:21.555Z,10.86
2023-05-07T05:05:01.762Z,10.85
2023-05-07T05:06:42.189Z,10.85
2023-05-07T05:08:22.551Z,10.84
2023-05-07T05:10:02.973Z,10.88
2023-05-07T05:11:43.388Z,10.85
2023-05-07T05:13:23.734Z,10.84
2023-05-07T05:15:04.073Z,10.85
2023-05-07T05:16:44.414Z,10.86
2023-05-07T05:18:24.829Z,10.82
2023-05-07T05:20:05.175Z,10.84
2023-05-07T05:21:45.633Z,10.88
2023-05-07T05:23:26.062Z,10.86
2023-05-07T05:25:06.538Z,10.88
2023-05-07T05:26:46.871Z,10.88
2023-05-07T05:28:27.217Z,10.9
2023-05-07T05:30:07.628Z,10.88
2023-05-07T05:31:48.082Z,10.92
2023-05-07T05:33:28.392Z,10.91
2023-05-07T05:35:08.876Z,10.95
2023-05-07T05:36:49.237Z,10.99
2023-05-07T05:38:29.719Z,10.95
2023-05-07T05:40:10.328Z,10.99
2023-05-07T05:41:50.663Z,11.04
2023-05-07T05:43:31.072Z,11.05
2023-05-07T05:45:11.474Z,11.06
2023-05-07T05:46:51.964Z,11.11
2023-05-07T05:48:32.277Z,11.13
2023-05-07T05:50:13.039Z,11.15
2023-05-07T05:51:53.244Z,11.15
2023-05-07T05:53:33.694Z,11.15
2023-05-07T05:55:14.183Z,11.19
2023-05-07T05:56:54.571Z,11.21
2023-05-07T05:58:34.939Z,11.25
2023-05-07T06:00:15.293Z,11.25
2023-05-07T06:01:55.714Z,11.26
2023-05-07T06:03:36.071Z,11.3
2023-05-07T06:05:16.592Z,11.32
2023-05-07T06:06:56.891Z,11.39
2023-05-07T06:08:37.270Z,11.43
2023-05-07T06:10:17.625Z,11.46
2023-05-07T06:12:00.357Z,11.49
2023-05-07T06:13:38.422Z,11.57
2023-05-07T06:15:18.927Z,11.6
2023-05-07T06:16:59.342Z,11.6
2023-05-07T06:18:39.779Z,11.64
2023-05-07T06:20:20.248Z,11.74
2023-05-07T06:22:00.745Z,11.78
2023-05-07T06:23:41.055Z,11.84
2023-05-07T06:25:21.529Z,11.92
2023-05-07T06:27:01.938Z,11.98
2023-05-07T06:28:42.292Z,12
2023-05-07T06:30:22.686Z,12
2023-05-07T06:32:03.067Z,12.02
2023-05-07T06:33:43.481Z,12.02
2023-05-07T06:35:23.954Z,12.02
2023-05-07T06:37:04.442Z,12
2023-05-07T06:38:44.845Z,11.98
2023-05-07T06:40:25.316Z,11.98
2023-05-07T06:42:05.877Z,12.02
2023-05-07T06:43:46.189Z,12.05
2023-05-07T06:45:26.614Z,12.04
2023-05-07T06:47:06.922Z,12.08
2023-05-07T06:48:47.364Z,12.05
2023-05-07T06:50:27.839Z,12
2023-05-07T06:52:08.214Z,12.02
2023-05-07T06:53:48.624Z,12.05
2023-05-07T06:55:29.059Z,12.01
2023-05-07T06:57:09.506Z,12.01
2023-05-07T06:58:49.905Z,11.94
2023-05-07T07:00:30.316Z,11.92
2023-05-07T07:02:10.770Z,11.97
2023-05-07T07:03:51.158Z,11.98
2023-05-07T07:05:31.509Z,11.98
2023-05-07T07:07:12.102Z,12
2023-05-07T07:08:52.462Z,12.04
2023-05-07T07:10:32.893Z,12
2023-05-07T07:12:13.310Z,12.02
2023-05-07T07:13:53.796Z,12.08
2023-05-07T07:15:34.223Z,12.09
2023-05-07T07:17:14.618Z,12.15
2023-05-07T07:18:55.096Z,12.14
2023-05-07T07:20:35.474Z,12.19
2023-05-07T07:22:15.908Z,12.14
2023-05-07T07:23:56.281Z,12.12
2023-05-07T07:25:36.747Z,12.12
2023-05-07T07:27:17.193Z,12.12
2023-05-07T07:28:57.535Z,12.15
2023-05-07T07:30:37.973Z,12.14
2023-05-07T07:32:18.424Z,12.14
2023-05-07T07:33:58.786Z,12.09
2023-05-07T07:35:39.273Z,12.14
2023-05-07T07:37:19.691Z,12.14
2023-05-07T07:39:00.101Z,12.17
2023-05-07T07:40:40.510Z,12.19
2023-05-07T07:42:20.979Z,12.25
2023-05-07T07:44:01.388Z,12.28
2023-05-07T07:45:41.771Z,12.32
2023-05-07T07:47:22.110Z,12.32
2023-05-07T07:49:02.606Z,12.36
2023-05-07T07:50:45.670Z,12.39
2023-05-07T07:52:23.383Z,12.4
2023-05-07T07:54:03.962Z,12.45
2023-05-07T07:55:44.278Z,12.48
2023-05-07T07:57:24.672Z,12.53
2023-05-07T07:59:05.117Z,12.62
2023-05-07T08:00:45.437Z,12.69
2023-05-07T08:02:26.024Z,12.75
2023-05-07T08:04:06.400Z,12.75
2023-05-07T08:05:46.693Z,12.8
2023-05-07T08:07:27.096Z,12.88
2023-05-07T08:09:07.503Z,12.91
2023-05-07T08:10:47.983Z,13.03
2023-05-07T08:12:28.418Z,13.06
2023-05-07T08:14:08.849Z,13.21
2023-05-07T08:15:49.232Z,13.21
2023-05-07T08:17:29.685Z,13.22
2023-05-07T08:19:10.015Z,13.25
2023-05-07T08:20:50.476Z,13.28
2023-05-07T08:22:30.931Z,13.29
2023-05-07T08:24:11.296Z,13.37
2023-05-07T08:25:51.758Z,13.41
2023-05-07T08:27:32.162Z,13.45
2023-05-07T08:29:12.649Z,13.54
2023-05-07T08:30:53.190Z,13.61
2023-05-07T08:32:33.501Z,13.73
2023-05-07T08:34:13.957Z,13.92
2023-05-07T08:35:54.356Z,13.96
2023-05-07T08:37:34.736Z,13.93
2023-05-07T08:39:15.054Z,14.02
2023-05-07T08:40:55.363Z,14.02
2023-05-07T08:42:35.773Z,14.14
2023-05-07T08:44:16.130Z,14.2
2023-05-07T08:45:56.719Z,14.25
2023-05-07T08:47:37.123Z,14.2
2023-05-07T08:49:17.525Z,14.11
2023-05-07T08:50:57.893Z,14.04
2023-05-07T08:52:38.297Z,13.9
2023-05-07T08:54:18.723Z,13.86
2023-05-07T08:55:59.123Z,13.72
2023-05-07T08:57:40.366Z,13.58
2023-05-07T08:59:19.993Z,13.61
2023-05-07T09:01:00.449Z,13.51
2023-05-07T09:02:40.946Z,13.45
2023-05-07T09:04:21.380Z,13.45
2023-05-07T09:06:01.770Z,13.39
2023-05-07T09:07:42.188Z,13.25
2023-05-07T09:09:22.630Z,13.19
2023-05-07T09:11:03.069Z,13.17
2023-05-07T09:12:43.573Z,13.07
2023-05-07T09:14:23.818Z,13.04
2023-05-07T09:16:04.232Z,12.91
2023-05-07T09:17:44.476Z,12.83
2023-05-07T09:19:24.748Z,12.77
2023-05-07T09:21:05.093Z,12.77
2023-05-07T09:22:45.638Z,12.77
2023-05-07T09:24:26.034Z,12.76
2023-05-07T09:26:07.357Z,12.79
2023-05-07T09:27:46.970Z,12.79
2023-05-07T09:29:27.406Z,12.79
2023-05-07T09:31:07.842Z,12.82
2023-05-07T09:32:48.277Z,12.86
2023-05-07T09:34:28.556Z,12.96
2023-05-07T09:36:08.987Z,13.06
2023-05-07T09:37:49.399Z,13.22
2023-05-07T09:39:29.788Z,13.31
2023-05-07T09:41:10.161Z,13.45
2023-05-07T09:42:50.573Z,13.52
2023-05-07T09:44:30.947Z,13.59
2023-05-07T09:46:11.406Z,13.65
2023-05-07T09:47:51.842Z,13.69
2023-05-07T09:49:32.176Z,13.75
2023-05-07T09:51:12.621Z,13.83
2023-05-07T09:52:53.019Z,13.89
2023-05-07T09:54:33.461Z,14
2023-05-07T09:56:13.914Z,14.03
2023-05-07T09:57:54.264Z,14.19
2023-05-07T09:59:34.658Z,14.37
2023-05-07T10:01:15.218Z,14.45
2023-05-07T10:02:55.563Z,14.58
2023-05-07T10:04:35.772Z,14.65
2023-05-07T10:06:16.187Z,14.69
2023-05-07T10:07:56.617Z,14.74
2023-05-07T10:09:37.024Z,14.76
2023-05-07T10:11:17.424Z,14.89
2023-05-07T10:12:57.862Z,14.79
2023-05-07T10:14:38.311Z,14.82
2023-05-07T10:16:18.710Z,14.86
2023-05-07T10:17:59.151Z,14.92
2023-05-07T10:19:39.504Z,14.99
2023-05-07T10:21:19.908Z,14.96
2023-05-07T10:23:00.292Z,15
2023-05-07T10:24:40.740Z,15.03
2023-05-07T10:26:21.163Z,15.07
2023-05-07T10:28:01.593Z,15.1
2023-05-07T10:29:41.968Z,15.22
2023-05-07T10:31:22.464Z,15.31
2023-05-07T10:33:02.833Z,15.3
2023-05-07T10:34:43.254Z,15.29
2023-05-07T10:36:23.575Z,15.41
2023-05-07T10:38:03.886Z,15.53
2023-05-07T10:39:44.335Z,15.53
2023-05-07T10:41:24.671Z,15.62
2023-05-07T10:43:06.001Z,15.72
2023-05-07T10:44:45.526Z,15.78
2023-05-07T10:46:25.935Z,15.89
2023-05-07T10:48:13.777Z,15.95
2023-05-07T10:49:46.723Z,15.99
2023-05-07T10:51:27.126Z,15.98
2023-05-07T10:53:07.584Z,16.22
2023-05-07T10:54:50.983Z,16.36
2023-05-07T10:56:28.322Z,16.5
2023-05-07T10:58:10.522Z,16.61
2023-05-07T10:59:49.255Z,16.7
2023-05-07T11:01:29.602Z,16.78
2023-05-07T11:03:10.012Z,16.9
2023-05-07T11:04:50.408Z,17.02
2023-05-07T11:06:30.762Z,17.17
2023-05-07T11:08:11.202Z,17.33
2023-05-07T11:09:51.611Z,17.35
2023-05-07T11:11:33.020Z,17.38
2023-05-07T11:13:12.531Z,17.54
2023-05-07T11:14:52.797Z,17.74
2023-05-07T11:16:33.276Z,17.81
2023-05-07T11:18:13.740Z,17.93
2023-05-07T11:19:53.978Z,18.19
2023-05-07T11:21:34.335Z,18.29
2023-05-07T11:23:14.670Z,18.35
2023-05-07T11:24:54.980Z,18.48
2023-05-07T11:26:35.357Z,18.59
2023-05-07T11:28:15.810Z,18.69
2023-05-07T11:29:56.214Z,18.72
2023-05-07T11:31:36.696Z,18.56
2023-05-07T11:33:17.071Z,18.52
2023-05-07T11:34:57.417Z,18.49
2023-05-07T11:36:37.867Z,18.39
2023-05-07T11:38:18.302Z,18.36
2023-05-07T11:39:58.729Z,18.51
2023-05-07T11:41:39.077Z,18.58
2023-05-07T11:43:19.451Z,18.54
2023-05-07T11:44:59.893Z,18.35
2023-05-07T11:46:40.394Z,18.17
2023-05-07T11:48:20.792Z,18.04
2023-05-07T11:50:01.234Z,17.97
2023-05-07T11:51:41.633Z,17.73
2023-05-07T11:53:22.017Z,17.88
2023-05-07T11:55:02.450Z,17.67
2023-05-07T11:56:42.883Z,17.54
2023-05-07T11:58:23.248Z,17.54
2023-05-07T12:00:03.658Z,17.52
2023-05-07T12:01:47.161Z,17.4
2023-05-07T12:03:24.616Z,17.5
2023-05-07T12:05:04.872Z,17.48
2023-05-07T12:06:45.264Z,17.43
2023-05-07T12:08:25.635Z,17.57
2023-05-07T12:10:06.105Z,17.59
2023-05-07T12:11:46.424Z,17.86
2023-05-07T12:13:27.039Z,18.09
2023-05-07T12:15:07.190Z,18.32
2023-05-07T12:16:47.683Z,18.9
2023-05-07T12:18:28.031Z,19.37
2023-05-07T12:20:08.469Z,19.92
2023-05-07T12:21:48.898Z,20.43
2023-05-07T12:23:29.325Z,20.7
2023-05-07T12:25:10.028Z,20.98
2023-05-07T12:26:50.203Z,20.84
2023-05-07T12:28:30.647Z,20.96
2023-05-07T12:30:11.117Z,21.02
2023-05-07T12:31:51.444Z,20.96
2023-05-07T12:33:31.835Z,20.7
2023-05-07T12:35:12.512Z,20.65
2023-05-07T12:36:52.662Z,20.46
2023-05-07T12:38:33.090Z,20.2
2023-05-07T12:40:13.542Z,20.16
2023-05-07T12:41:54.004Z,20.34
2023-05-07T12:43:34.427Z,20.16
2023-05-07T12:45:15.196Z,20.08
2023-05-07T12:46:55.344Z,19.93
2023-05-07T12:48:35.686Z,19.95
2023-05-07T12:50:16.157Z,20.05
2023-05-07T12:51:56.503Z,20.16
2023-05-07T12:53:36.873Z,20.46
2023-05-07T12:55:17.262Z,20.59
2023-05-07T12:56:57.587Z,20.7
2023-05-07T12:58:37.926Z,20.59
2023-05-07T13:00:18.326Z,20.57
2023-05-07T13:01:58.694Z,20.71
2023-05-07T13:03:39.323Z,20.68
2023-05-07T13:05:22.560Z,20.94
2023-05-07T13:07:02.949Z,21.26
2023-05-07T13:08:40.330Z,21.65
2023-05-07T13:10:20.764Z,21.98
2023-05-07T13:12:01.178Z,22.15
2023-05-07T13:13:41.649Z,22.21
2023-05-07T13:15:22.065Z,22.25
2023-05-07T13:17:02.477Z,22.15
2023-05-07T13:18:42.994Z,21.92
2023-05-07T13:20:23.225Z,21.92
2023-05-07T13:22:03.595Z,21.98
2023-05-07T13:23:44.032Z,21.82
2023-05-07T13:25:24.471Z,21.65
2023-05-07T13:27:04.876Z,21.63
2023-05-07T13:28:45.398Z,21.91
2023-05-07T13:30:25.830Z,22.04
2023-05-07T13:32:06.311Z,21.78
2023-05-07T13:33:46.537Z,21.53
2023-05-07T13:35:27.006Z,21.58
2023-05-07T13:38:47.871Z,21.49
2023-05-07T13:40:28.368Z,21.56
2023-05-07T13:42:08.737Z,21.53
2023-05-07T13:43:49.051Z,21.47
2023-05-07T13:45:36.530Z,21.58
2023-05-07T13:47:09.834Z,21.33
2023-05-07T13:48:50.210Z,21.37
2023-05-07T13:50:30.614Z,21.71
2023-05-07T13:52:11.048Z,21.98
2023-05-07T13:53:51.510Z,22.16
2023-05-07T13:55:31.913Z,21.92
2023-05-07T13:57:15.439Z,21.7
2023-05-07T13:58:59.877Z,21.67
2023-05-07T14:00:33.201Z,21.77
2023-05-07T14:02:13.700Z,22.13
2023-05-07T14:03:54.205Z,22.52
2023-05-07T14:05:34.401Z,22.79
2023-05-07T14:07:14.807Z,22.82
2023-05-07T14:08:55.239Z,22.9
2023-05-07T14:10:35.597Z,22.71
2023-05-07T14:12:16.032Z,22.8
2023-05-07T14:13:56.407Z,22.98
2023-05-07T14:15:36.778Z,23.07
2023-05-07T14:17:17.261Z,22.77
2023-05-07T14:18:58.462Z,22.67
2023-05-07T14:20:38.068Z,22.76
2023-05-07T14:22:18.483Z,22.96
2023-05-07T14:23:58.916Z,22.93
2023-05-07T14:25:39.293Z,22.87
2023-05-07T14:27:19.733Z,22.87
2023-05-07T14:29:00.189Z,22.62
2023-05-07T14:30:40.672Z,22.56
2023-05-07T14:32:21.124Z,22.64
2023-05-07T14:34:01.460Z,22.66
2023-05-07T14:35:41.932Z,22.4
2023-05-07T14:37:22.369Z,22.36
2023-05-07T14:39:02.794Z,22.27
2023-05-07T14:40:43.191Z,22.13
2023-05-07T14:42:23.573Z,22.01
2023-05-07T14:44:03.982Z,21.87
2023-05-07T14:45:44.383Z,21.85
2023-05-07T14:47:24.847Z,21.85
2023-05-07T14:49:05.196Z,21.82
2023-05-07T14:50:45.673Z,21.73
2023-05-07T14:52:25.976Z,21.46
2023-05-07T14:54:06.387Z,21.25
2023-05-07T14:55:46.822Z,21.26
2023-05-07T14:57:27.162Z,21.01
2023-05-07T14:59:07.548Z,20.7
2023-05-07T15:00:48.022Z,20.78
2023-05-07T15:02:28.507Z,20.71
2023-05-07T15:04:09.085Z,20.65
2023-05-07T15:05:49.338Z,20.36
2023-05-07T15:07:29.796Z,20.19
2023-05-07T15:09:10.168Z,19.8
2023-05-07T15:10:50.572Z,19.5
2023-05-07T15:12:31.051Z,19.3
2023-05-07T15:14:11.464Z,19.15
2023-05-07T15:15:52.068Z,18.83
2023-05-07T15:17:32.377Z,18.72
2023-05-07T15:19:12.713Z,18.67
2023-05-07T15:20:53.146Z,18.55
2023-05-07T15:22:33.567Z,18.39
2023-05-07T15:24:13.908Z,18.27
2023-05-07T15:25:54.403Z,18.05
2023-05-07T15:27:34.884Z,18.04
2023-05-07T15:29:15.382Z,18.03
2023-05-07T15:30:56.395Z,17.96
2023-05-07T15:32:36.258Z,17.9
2023-05-07T15:34:16.685Z,17.9
2023-05-07T15:35:57.261Z,17.91
2023-05-07T15:37:37.570Z,17.86
2023-05-07T15:39:17.979Z,17.79
2023-05-07T15:40:58.416Z,17.73
2023-05-07T15:42:38.900Z,17.69
2023-05-07T15:44:19.306Z,17.67
2023-05-07T15:45:59.746Z,17.66
2023-05-07T15:47:40.069Z,17.63
2023-05-07T15:49:20.563Z,17.56
2023-05-07T15:51:00.970Z,17.52
2023-05-07T15:52:41.257Z,17.45
2023-05-07T15:54:21.604Z,17.46
2023-05-07T15:56:02.017Z,17.52
2023-05-07T15:57:42.540Z,17.43
2023-05-07T15:59:22.869Z,17.45
2023-05-07T16:01:03.228Z,17.49
2023-05-07T16:02:43.691Z,17.49
2023-05-07T16:04:24.044Z,17.45
2023-05-07T16:06:04.549Z,17.35
2023-05-07T16:07:44.915Z,17.3
2023-05-07T16:09:25.355Z,17.25
2023-05-07T16:11:05.769Z,17.18
2023-05-07T16:12:46.199Z,17.14
2023-05-07T16:14:26.606Z,17.08
2023-05-07T16:16:06.996Z,16.96
2023-05-07T16:17:47.540Z,16.92
2023-05-07T16:19:28.828Z,16.87
2023-05-07T16:21:08.333Z,16.74
2023-05-07T16:22:48.772Z,16.75
2023-05-07T16:24:29.268Z,16.71
2023-05-07T16:26:09.764Z,16.61
2023-05-07T16:27:50.222Z,16.53
2023-05-07T16:29:30.595Z,16.46
2023-05-07T16:31:11.070Z,16.44
2023-05-07T16:32:51.546Z,16.4
2023-05-07T16:34:32.565Z,16.33
2023-05-07T16:36:12.299Z,16.26
2023-05-07T16:37:52.769Z,16.22
2023-05-07T16:39:36.247Z,16.17
2023-05-07T16:41:13.581Z,16.12
2023-05-07T16:42:55.510Z,16.13
2023-05-07T16:44:34.435Z,16.17
2023-05-07T16:46:14.934Z,16.17
2023-05-07T16:47:55.391Z,16.12
2023-05-07T16:49:35.804Z,16.12
2023-05-07T16:51:16.163Z,16.08
2023-05-07T16:52:56.549Z,16.06
2023-05-07T16:54:36.996Z,16.05
2023-05-07T16:56:17.337Z,16.05
2023-05-07T16:57:57.705Z,16.05
2023-05-07T16:59:38.232Z,15.98
2023-05-07T17:01:18.633Z,15.98
2023-05-07T17:02:59.126Z,15.88
2023-05-07T17:04:42.584Z,15.8
2023-05-07T17:06:19.895Z,15.77
2023-05-07T17:08:00.285Z,15.71
2023-05-07T17:09:40.734Z,15.68
2023-05-07T17:11:21.065Z,15.65
2023-05-07T17:13:01.465Z,15.61
2023-05-07T17:14:41.778Z,15.56
2023-05-07T17:16:22.158Z,15.48
2023-05-07T17:18:02.704Z,15.41
2023-05-07T17:19:43.007Z,15.33
2023-05-07T17:21:23.505Z,15.29
2023-05-07T17:23:03.991Z,15.22
2023-05-07T17:24:44.382Z,15.17
2023-05-07T17:26:24.841Z,15.09
2023-05-07T17:28:05.240Z,15.03
2023-05-07T17:29:45.671Z,14.98
2023-05-07T17:31:26.347Z,14.92
2023-05-07T17:33:19.327Z,14.85
2023-05-07T17:34:46.968Z,14.76
2023-05-07T17:36:27.428Z,14.68
2023-05-07T17:38:07.871Z,14.57
2023-05-07T17:39:48.247Z,14.49
2023-05-07T17:41:28.645Z,14.4
2023-05-07T17:43:09.108Z,14.31
2023-05-07T17:44:49.489Z,14.21
2023-05-07T17:46:29.999Z,14.13
2023-05-07T17:48:10.376Z,14.06
2023-05-07T17:49:50.769Z,13.99
2023-05-07T17:51:39.034Z,13.9
2023-05-07T17:53:11.591Z,13.82
2023-05-07T17:54:52.058Z,13.75
2023-05-07T17:56:32.482Z,13.69
2023-05-07T17:58:15.956Z,13.61
2023-05-07T17:59:53.349Z,13.58
2023-05-07T18:01:33.727Z,13.51
2023-05-07T18:03:14.328Z,13.45
2023-05-07T18:04:54.618Z,13.39
2023-05-07T18:06:35.081Z,13.34
2023-05-07T18:08:15.511Z,13.28
2023-05-07T18:09:55.956Z,13.27
2023-05-07T18:11:36.404Z,13.18
2023-05-07T18:13:16.864Z,13.15
2023-05-07T18:14:57.230Z,13.08
2023-05-07T18:16:37.698Z,13.03
2023-05-07T18:18:17.947Z,12.97
2023-05-07T18:19:58.353Z,12.9
2023-05-07T18:21:41.797Z,12.84
2023-05-07T18:23:19.157Z,12.77
2023-05-07T18:24:59.590Z,12.7
2023-05-07T18:26:40.023Z,12.69
2023-05-07T18:28:20.378Z,12.66
2023-05-07T18:30:00.753Z,12.59
2023-05-07T18:31:41.207Z,12.5
2023-05-07T18:33:21.593Z,12.46
2023-05-07T18:35:02.044Z,12.42
2023-05-07T18:36:42.496Z,12.32
2023-05-07T18:38:22.911Z,12.29
2023-05-07T18:40:03.294Z,12.27
2023-05-07T18:41:43.704Z,12.21
2023-05-07T18:43:24.102Z,12.15
2023-05-07T18:45:04.515Z,12.11
2023-05-07T18:46:44.884Z,12.05
2023-05-07T18:48:25.299Z,12
2023-05-07T18:50:08.037Z,11.95
2023-05-07T18:51:46.141Z,11.91
2023-05-07T18:53:26.582Z,11.85
2023-05-07T18:55:07.018Z,11.82
2023-05-07T18:56:47.473Z,11.8
2023-05-07T18:58:27.902Z,11.73
2023-05-07T19:00:08.251Z,11.74
2023-05-07T19:01:48.758Z,11.69
2023-05-07T19:03:28.997Z,11.63
2023-05-07T19:05:09.405Z,11.59
2023-05-07T19:06:49.765Z,11.56
2023-05-07T19:08:30.094Z,11.49
2023-05-07T19:10:10.561Z,11.42
2023-05-07T19:11:50.918Z,11.42
2023-05-07T19:13:31.484Z,11.37
2023-05-07T19:15:11.869Z,11.32
2023-05-07T19:16:52.206Z,11.27
2023-05-07T19:18:32.637Z,11.25
2023-05-07T19:20:13.081Z,11.19
2023-05-07T19:21:53.469Z,11.16
2023-05-07T19:23:33.902Z,11.15
2023-05-07T19:25:14.539Z,11.08
2023-05-07T19:26:54.733Z,11.08
2023-05-07T19:28:36.594Z,11.05
2023-05-07T19:30:15.578Z,10.99
2023-05-07T19:31:56.079Z,10.91
2023-05-07T19:33:36.470Z,10.91
2023-05-07T19:35:16.831Z,10.82
2023-05-07T19:36:57.236Z,10.79
2023-05-07T19:38:37.666Z,10.74
2023-05-07T19:40:17.997Z,10.75
2023-05-07T19:41:58.266Z,10.71
2023-05-07T19:43:38.831Z,10.74
2023-05-07T19:45:19.235Z,10.76
2023-05-07T19:46:59.576Z,10.78
2023-05-07T19:48:39.991Z,10.76
2023-05-07T19:50:20.380Z,10.71
2023-05-07T19:52:00.795Z,10.7
2023-05-07T19:53:41.210Z,10.67
2023-05-07T19:55:21.645Z,10.63
2023-05-07T19:57:02.077Z,10.64
2023-05-07T19:58:42.421Z,10.63
2023-05-07T20:00:22.850Z,10.63
2023-05-07T20:02:06.304Z,10.67
2023-05-07T20:03:43.758Z,10.61
2023-05-07T20:05:23.974Z,10.56
2023-05-07T20:07:07.467Z,10.51
2023-05-07T20:08:44.841Z,10.44
2023-05-07T20:10:25.277Z,10.39
2023-05-07T20:12:05.726Z,10.41
2023-05-07T20:13:46.173Z,10.41
2023-05-07T20:15:26.488Z,10.37
2023-05-07T20:17:06.916Z,10.32
2023-05-07T20:18:47.381Z,10.26
2023-05-07T20:20:27.920Z,10.17
2023-05-07T20:22:08.235Z,10.17
2023-05-07T20:23:48.729Z,10.12
2023-05-07T20:25:29.085Z,10.1
2023-05-07T20:27:09.511Z,10.1
2023-05-07T20:28:49.833Z,10.07
2023-05-07T20:30:30.301Z,10.02
2023-05-07T20:32:10.794Z,10.05
2023-05-07T20:33:51.101Z,10.06
2023-05-07T20:35:31.464Z,10.07
2023-05-07T20:37:11.970Z,10.06
2023-05-07T20:38:52.471Z,10
2023-05-07T20:40:32.836Z,9.93
2023-05-07T20:42:13.124Z,9.88
2023-05-07T20:43:53.422Z,9.95
2023-05-07T20:45:33.929Z,9.93
2023-05-07T20:47:14.207Z,9.96
2023-05-07T20:48:54.627Z,9.96
2023-05-07T20:50:34.954Z,9.9
2023-05-07T20:52:15.349Z,9.92
2023-05-07T20:53:55.776Z,9.92
2023-05-07T20:55:36.141Z,9.85
2023-05-07T20:57:16.597Z,9.84
2023-05-07T20:58:57.054Z,9.89
2023-05-07T21:00:37.517Z,9.86
2023-05-07T21:02:17.864Z,9.81
2023-05-07T21:03:58.263Z,9.78
2023-05-07T21:05:38.624Z,9.74
2023-05-07T21:07:19.019Z,9.74
2023-05-07T21:08:59.485Z,9.68
2023-05-07T21:10:39.848Z,9.66
2023-05-07T21:12:20.229Z,9.61
2023-05-07T21:14:00.584Z,9.61
2023-05-07T21:15:40.982Z,9.63
2023-05-07T21:17:21.393Z,9.66
2023-05-07T21:19:01.717Z,9.69
2023-05-07T21:20:42.078Z,9.66
2023-05-07T21:22:22.516Z,9.66
2023-05-07T21:24:02.861Z,9.69
2023-05-07T21:25:43.199Z,9.66
2023-05-07T21:27:23.583Z,9.61
2023-05-07T21:29:04.013Z,9.59
2023-05-07T21:30:44.457Z,9.57
2023-05-07T21:32:24.865Z,9.51
2023-05-07T21:34:05.277Z,9.48
2023-05-07T21:35:45.623Z,9.4
2023-05-07T21:37:26.024Z,9.34
2023-05-07T21:39:06.369Z,9.35
2023-05-07T21:40:46.810Z,9.41
2023-05-07T21:42:27.272Z,9.38
2023-05-07T21:44:07.704Z,9.29